EGYM

RAF Marham Airport

Marham, United Kingdom
TAF EGYM 241622Z 2418/2424 30007KT 9999 FEW030
Issued Valid From Valid To
Sep-24 @ 16:22 UTC
(3 hours ago)
Sep-24 @ 18:00 UTC
(2 hours ago)
Sep-25 @ 00:00 UTC
(in 4 hours)
Sep-24 @ 18:00 to Sep-25 @ 00:00
TAF EGYM 241622Z 2418/2424 30007KT 9999 FEW030
Wind Visibility Clouds
300° at 7 knots 10,000+ meters
  • Few at 3,000' AGL
TAF EGYM 241622Z 2418/2424 30007KT 9999 FEW030
Issued Sep-24 @ 16:22 UTC
(3 hours ago)
Valid From Sep-24 @ 18:00 UTC
(2 hours ago)
Valid To Sep-25 @ 00:00 UTC
(in 4 hours)
Sep-24 @ 18:00 - Sep-25 @ 00:00
Wind Visibility
300° at 7 knots 10,000+ meters
Clouds
  • Few at 3,000' AGL